Time;durP1;ratioP1;P1;durP2;ratioP2;P2;SDS_P1;SDS_P2;PMS_P1;PMS_P2;Temp;Humidity;BMP_temperature;BMP_pressure;BME280_temperature;BME280_humidity;BME280_pressure;Samples;Min_cycle;Max_cycle;Signal;HPM_P1;HPM_P2
2022/10/20 00:00:24;;;;;;;8.48;4.57;;;;;;;;;;5099344;28;20056;-62
2022/10/20 00:02:50;;;;;;;10.48;4.95;;;;;;;;;;5093186;27;20633;-63
2022/10/20 00:05:16;;;;;;;6.65;4.47;;;;;;;;;;5094532;28;20063;-62
2022/10/20 00:07:43;;;;;;;8.90;5.30;;;;;;;;;;5103507;27;20513;-63
2022/10/20 00:10:09;;;;;;;6.55;4.45;;;;;;;;;;5093495;27;20055;-63
2022/10/20 00:12:35;;;;;;;7.90;4.93;;;;;;;;;;5095628;28;20492;-61
2022/10/20 00:15:02;;;;;;;8.52;5.03;;;;;;;;;;5100981;28;20060;-62
2022/10/20 00:17:29;;;;;;;6.32;4.50;;;;;;;;;;5100956;28;20450;-62
2022/10/20 00:19:56;;;;;;;9.00;4.57;;;;;;;;;;5102764;27;20479;-62
2022/10/20 00:22:22;;;;;;;9.02;4.90;;;;;;;;;;5100975;27;20510;-62
2022/10/20 00:24:50;;;;;;;7.22;5.03;;;;;;;;;;5097873;28;20048;-62
2022/10/20 00:27:16;;;;;;;5.25;4.25;;;;;;;;;;5096504;27;20521;-62
2022/10/20 00:29:42;;;;;;;5.78;4.78;;;;;;;;;;5092690;28;20409;-62
2022/10/20 00:32:09;;;;;;;5.90;4.40;;;;;;;;;;5101620;27;20123;-62
2022/10/20 00:34:35;;;;;;;6.35;4.72;;;;;;;;;;5098996;27;20056;-61
2022/10/20 00:37:02;;;;;;;6.53;4.45;;;;;;;;;;5103726;27;20071;-63
2022/10/20 00:39:29;;;;;;;5.35;4.82;;;;;;;;;;5103397;27;20054;-61
2022/10/20 00:41:55;;;;;;;13.20;4.57;;;;;;;;;;5101879;28;20048;-62
2022/10/20 00:44:41;;;;;;;8.00;4.88;;;;;;;;;;5103537;27;20044;-62
2022/10/20 00:47:16;;;;;;;7.37;5.53;;;;;;;;;;5101758;28;20048;-63
2022/10/20 00:49:42;;;;;;;6.05;4.90;;;;;;;;;;5104415;28;20516;-62
2022/10/20 00:52:09;;;;;;;8.35;4.82;;;;;;;;;;5103142;28;20191;-62
2022/10/20 00:54:36;;;;;;;9.52;4.75;;;;;;;;;;5106953;27;20057;-63
2022/10/20 00:57:02;;;;;;;7.70;4.90;;;;;;;;;;5101299;28;20052;-62
2022/10/20 00:59:31;;;;;;;8.35;5.38;;;;;;;;;;5104186;28;20058;-62
2022/10/20 01:01:59;;;;;;;10.90;5.15;;;;;;;;;;5102138;27;20531;-62
2022/10/20 01:04:28;;;;;;;11.07;5.85;;;;;;;;;;5102274;27;20640;-61
2022/10/20 01:06:54;;;;;;;13.25;4.93;;;;;;;;;;5096060;28;20606;-63
2022/10/20 01:09:21;;;;;;;7.13;5.03;;;;;;;;;;5101318;27;20555;-61
2022/10/20 01:11:53;;;;;;;9.63;5.00;;;;;;;;;;5087351;27;20048;-63
2022/10/20 01:14:28;;;;;;;8.13;5.38;;;;;;;;;;5100546;28;20488;-61
2022/10/20 01:16:55;;;;;;;;;;;;;;;;;;5102754;27;20063;-63
2022/10/20 01:19:27;;;;;;;8.23;4.47;;;;;;;;;;5102062;28;45821;-62
2022/10/20 01:21:53;;;;;;;7.03;5.40;;;;;;;;;;5102889;27;20494;-63
2022/10/20 01:24:40;;;;;;;9.50;5.60;;;;;;;;;;5105265;27;20055;-63
2022/10/20 01:27:30;;;;;;;12.68;5.15;;;;;;;;;;5102592;27;20067;-63
2022/10/20 01:30:00;;;;;;;11.57;5.88;;;;;;;;;;5095803;28;20055;-63
2022/10/20 01:32:27;;;;;;;6.68;5.05;;;;;;;;;;5092826;27;20044;-63
2022/10/20 01:34:53;;;;;;;7.25;5.10;;;;;;;;;;5092968;28;20048;-63
2022/10/20 01:37:31;;;;;;;13.88;5.97;;;;;;;;;;5094144;28;20052;-62
2022/10/20 01:40:30;;;;;;;9.73;5.55;;;;;;;;;;5100395;28;20558;-62
2022/10/20 01:42:58;;;;;;;10.73;5.93;;;;;;;;;;5102909;27;20625;-61
2022/10/20 01:45:26;;;;;;;8.60;5.78;;;;;;;;;;5096820;28;20063;-63
2022/10/20 01:47:52;;;;;;;7.53;5.45;;;;;;;;;;5096487;28;20562;-63
2022/10/20 01:50:20;;;;;;;10.02;5.30;;;;;;;;;;5104409;27;20064;-62
2022/10/20 01:52:46;;;;;;;7.20;5.45;;;;;;;;;;5101667;27;20052;-62
2022/10/20 01:55:16;;;;;;;9.77;5.88;;;;;;;;;;5099839;28;20052;-62
2022/10/20 01:57:46;;;;;;;10.73;5.32;;;;;;;;;;5094224;28;20059;-63
2022/10/20 02:00:16;;;;;;;12.07;5.63;;;;;;;;;;5102375;27;20054;-63
2022/10/20 02:03:04;;;;;;;11.23;6.10;;;;;;;;;;5098816;27;20053;-63
2022/10/20 02:05:50;;;;;;;10.50;5.53;;;;;;;;;;5102704;27;20581;-62
2022/10/20 02:08:21;;;;;;;15.82;5.97;;;;;;;;;;5100153;27;20083;-63
2022/10/20 02:10:53;;;;;;;9.27;6.03;;;;;;;;;;5113459;27;20056;-62
2022/10/20 02:13:20;;;;;;;10.35;6.25;;;;;;;;;;5098242;27;20066;-62
2022/10/20 02:15:51;;;;;;;7.10;5.47;;;;;;;;;;5120671;27;20619;-61
2022/10/20 02:18:21;;;;;;;12.73;6.43;;;;;;;;;;5085534;28;20091;-64
2022/10/20 02:20:48;;;;;;;11.40;7.55;;;;;;;;;;5085805;28;20052;-62
2022/10/20 02:23:16;;;;;;;12.02;5.90;;;;;;;;;;5099728;27;20090;-62
2022/10/20 02:25:42;;;;;;;11.60;6.35;;;;;;;;;;5099860;28;20052;-62
2022/10/20 02:28:10;;;;;;;8.55;5.97;;;;;;;;;;5096751;27;20048;-62
2022/10/20 02:30:37;;;;;;;12.05;6.30;;;;;;;;;;5089924;27;20060;-62
2022/10/20 02:33:04;;;;;;;13.82;6.50;;;;;;;;;;5101410;27;20142;-61
2022/10/20 02:35:31;;;;;;;9.35;6.47;;;;;;;;;;5101162;28;20082;-62
2022/10/20 02:37:58;;;;;;;10.10;6.50;;;;;;;;;;5100750;28;20505;-61
2022/10/20 02:40:25;;;;;;;12.43;7.03;;;;;;;;;;5100207;27;20055;-63
2022/10/20 02:42:51;;;;;;;12.75;6.03;;;;;;;;;;5106812;27;20839;-61
2022/10/20 02:45:17;;;;;;;11.23;6.50;;;;;;;;;;5102432;27;20454;-63
2022/10/20 02:47:44;;;;;;;10.07;7.00;;;;;;;;;;5081910;28;20052;-62
2022/10/20 02:50:11;;;;;;;12.40;5.90;;;;;;;;;;5095392;28;20053;-63
2022/10/20 02:52:37;;;;;;;11.27;7.10;;;;;;;;;;5091830;28;20056;-61
2022/10/20 02:55:04;;;;;;;7.80;5.93;;;;;;;;;;5104188;27;20410;-62
2022/10/20 02:57:30;;;;;;;10.30;7.75;;;;;;;;;;5109198;27;20138;-62
2022/10/20 02:59:57;;;;;;;8.68;6.55;;;;;;;;;;5102079;28;20560;-64
2022/10/20 03:02:23;;;;;;;9.40;6.95;;;;;;;;;;5099023;27;20052;-62
2022/10/20 03:04:50;;;;;;;16.33;6.30;;;;;;;;;;5094009;28;20062;-63
2022/10/20 03:07:16;;;;;;;13.45;6.35;;;;;;;;;;5095907;28;20063;-63
2022/10/20 03:09:43;;;;;;;9.13;6.15;;;;;;;;;;5101317;27;20048;-62
2022/10/20 03:12:09;;;;;;;8.65;6.55;;;;;;;;;;5104127;27;20048;-62
2022/10/20 03:14:35;;;;;;;7.78;6.53;;;;;;;;;;5107570;27;20039;-63
2022/10/20 03:17:02;;;;;;;12.10;7.32;;;;;;;;;;5100653;27;20052;-63
2022/10/20 03:19:28;;;;;;;8.70;5.75;;;;;;;;;;5100238;28;20049;-62
2022/10/20 03:21:54;;;;;;;11.38;6.80;;;;;;;;;;5092811;27;20118;-63
2022/10/20 03:24:21;;;;;;;9.45;6.28;;;;;;;;;;5091788;28;20052;-62
2022/10/20 03:26:47;;;;;;;10.18;6.38;;;;;;;;;;5101360;27;20056;-63
2022/10/20 03:29:13;;;;;;;10.63;6.50;;;;;;;;;;5101054;28;20048;-62
2022/10/20 03:31:39;;;;;;;9.43;6.03;;;;;;;;;;5100905;27;20134;-63
2022/10/20 03:34:06;;;;;;;9.68;6.25;;;;;;;;;;5094992;27;20141;-64
2022/10/20 03:36:32;;;;;;;10.63;6.35;;;;;;;;;;5099829;27;20572;-62
2022/10/20 03:38:58;;;;;;;11.90;6.60;;;;;;;;;;5100270;28;20048;-62
2022/10/20 03:41:24;;;;;;;11.75;6.32;;;;;;;;;;5100505;27;20056;-62
2022/10/20 03:43:51;;;;;;;11.52;6.32;;;;;;;;;;5101709;28;20520;-62
2022/10/20 03:46:17;;;;;;;8.60;6.68;;;;;;;;;;5100348;27;20044;-62
2022/10/20 03:48:43;;;;;;;10.75;8.35;;;;;;;;;;5101767;27;20044;-61
2022/10/20 03:51:10;;;;;;;9.88;6.22;;;;;;;;;;5102916;27;20056;-62
2022/10/20 03:53:37;;;;;;;9.27;5.90;;;;;;;;;;5086966;28;20106;-62
2022/10/20 03:56:07;;;;;;;9.75;6.82;;;;;;;;;;5094992;28;20667;-62
2022/10/20 03:58:33;;;;;;;8.30;6.57;;;;;;;;;;5103767;27;20429;-61
2022/10/20 04:00:59;;;;;;;9.50;6.18;;;;;;;;;;5106433;27;20052;-62
2022/10/20 04:03:26;;;;;;;9.13;7.32;;;;;;;;;;5095810;27;20173;-61
2022/10/20 04:05:52;;;;;;;7.57;6.22;;;;;;;;;;5098223;27;20136;-62
2022/10/20 04:08:18;;;;;;;14.10;6.68;;;;;;;;;;5097789;28;20524;-61
2022/10/20 04:10:45;;;;;;;10.82;6.22;;;;;;;;;;5104839;27;20683;-62
2022/10/20 04:13:11;;;;;;;12.65;8.05;;;;;;;;;;5086636;28;20052;-63
2022/10/20 04:15:37;;;;;;;8.93;6.43;;;;;;;;;;5097295;27;20552;-62
2022/10/20 04:18:04;;;;;;;10.95;7.10;;;;;;;;;;5104073;27;20058;-63
2022/10/20 04:20:30;;;;;;;13.18;7.22;;;;;;;;;;5102716;27;20056;-61
2022/10/20 04:22:57;;;;;;;9.77;6.65;;;;;;;;;;5098318;27;20064;-63
2022/10/20 04:25:23;;;;;;;9.30;6.32;;;;;;;;;;5104200;27;20102;-63
2022/10/20 04:27:50;;;;;;;11.63;7.72;;;;;;;;;;5104212;27;21078;-62
2022/10/20 04:30:16;;;;;;;10.98;6.75;;;;;;;;;;5087947;28;20048;-62
2022/10/20 04:32:42;;;;;;;15.27;7.13;;;;;;;;;;5106193;27;20046;-63
2022/10/20 04:35:09;;;;;;;8.77;6.82;;;;;;;;;;5102497;27;20539;-62
2022/10/20 04:37:35;;;;;;;8.50;7.07;;;;;;;;;;5102272;27;20063;-62
2022/10/20 04:40:02;;;;;;;9.27;6.38;;;;;;;;;;5102083;28;20135;-63
2022/10/20 04:42:29;;;;;;;7.85;6.60;;;;;;;;;;5100576;28;20052;-62
2022/10/20 04:44:55;;;;;;;11.82;6.72;;;;;;;;;;5106002;27;20059;-61
2022/10/20 04:47:30;;;;;;;10.38;6.45;;;;;;;;;;5101126;27;20513;-62
2022/10/20 04:49:56;;;;;;;11.82;6.57;;;;;;;;;;5104559;27;20437;-61
2022/10/20 04:52:22;;;;;;;10.90;8.02;;;;;;;;;;5101298;27;20044;-63
2022/10/20 04:54:48;;;;;;;12.50;6.30;;;;;;;;;;5088761;28;20052;-63
2022/10/20 04:57:15;;;;;;;9.95;6.65;;;;;;;;;;5094837;28;20466;-62
2022/10/20 04:59:41;;;;;;;14.23;7.60;;;;;;;;;;5101125;28;20044;-62
2022/10/20 05:02:10;;;;;;;9.38;6.35;;;;;;;;;;5110873;27;20052;-61
2022/10/20 05:04:36;;;;;;;8.98;6.60;;;;;;;;;;5094362;27;20427;-61
2022/10/20 05:07:02;;;;;;;9.82;7.28;;;;;;;;;;5098792;27;20067;-63
2022/10/20 05:09:30;;;;;;;10.77;6.40;;;;;;;;;;5100288;27;20051;-61
2022/10/20 05:11:56;;;;;;;12.43;7.22;;;;;;;;;;5092895;28;20050;-61
2022/10/20 05:14:23;;;;;;;10.52;8.13;;;;;;;;;;5102897;28;20067;-62
2022/10/20 05:16:49;;;;;;;8.65;6.32;;;;;;;;;;5096847;27;20048;-63
2022/10/20 05:19:15;;;;;;;8.95;6.43;;;;;;;;;;5096672;28;20118;-61
2022/10/20 05:21:42;;;;;;;11.52;6.57;;;;;;;;;;5084479;28;20056;-62
2022/10/20 05:24:13;;;;;;;13.85;7.03;;;;;;;;;;5100329;27;20533;-62
2022/10/20 05:26:45;;;;;;;10.18;7.35;;;;;;;;;;5107885;27;20067;-63
2022/10/20 05:29:11;;;;;;;10.63;7.72;;;;;;;;;;5084313;28;20056;-61
2022/10/20 05:31:39;;;;;;;17.38;6.68;;;;;;;;;;5095633;28;20299;-62
2022/10/20 05:34:06;;;;;;;9.60;7.65;;;;;;;;;;5099206;28;20052;-62
2022/10/20 05:36:32;;;;;;;10.52;7.28;;;;;;;;;;5101743;28;20056;-62
2022/10/20 05:38:58;;;;;;;16.40;7.50;;;;;;;;;;5107561;27;20508;-61
2022/10/20 05:41:26;;;;;;;9.77;6.63;;;;;;;;;;5114411;27;20052;-61
2022/10/20 05:43:56;;;;;;;13.60;8.07;;;;;;;;;;5083583;28;20502;-62
2022/10/20 05:46:23;;;;;;;9.10;6.68;;;;;;;;;;5102075;27;20096;-62
2022/10/20 05:48:52;;;;;;;14.85;7.70;;;;;;;;;;5098384;27;20052;-62
2022/10/20 05:51:20;;;;;;;16.58;7.32;;;;;;;;;;5103228;27;20445;-61
2022/10/20 05:53:47;;;;;;;12.60;7.93;;;;;;;;;;5103961;28;20052;-62
2022/10/20 05:56:14;;;;;;;15.85;8.07;;;;;;;;;;5100072;28;20056;-62
2022/10/20 05:58:42;;;;;;;13.75;7.80;;;;;;;;;;5103627;28;20055;-61
2022/10/20 06:01:09;;;;;;;11.07;7.70;;;;;;;;;;5085444;28;20053;-61
2022/10/20 06:03:36;;;;;;;8.85;7.72;;;;;;;;;;5103573;27;20098;-63
2022/10/20 06:06:02;;;;;;;12.48;8.07;;;;;;;;;;5098850;28;20048;-62
2022/10/20 06:08:30;;;;;;;12.80;7.70;;;;;;;;;;5095673;27;20106;-62
2022/10/20 06:10:56;;;;;;;12.05;7.90;;;;;;;;;;5103244;27;20048;-63
2022/10/20 06:13:23;;;;;;;12.70;7.68;;;;;;;;;;5100293;27;20154;-62
2022/10/20 06:15:49;;;;;;;13.30;7.40;;;;;;;;;;5103871;27;20052;-61
2022/10/20 06:18:15;;;;;;;12.63;7.80;;;;;;;;;;5102927;27;20059;-62
2022/10/20 06:20:42;;;;;;;11.63;8.43;;;;;;;;;;5098077;27;20592;-62
2022/10/20 06:23:08;;;;;;;15.18;7.85;;;;;;;;;;5102837;27;20067;-62
2022/10/20 06:25:34;;;;;;;15.48;8.43;;;;;;;;;;5106248;27;20059;-63
2022/10/20 06:28:00;;;;;;;12.43;8.85;;;;;;;;;;5103147;27;20052;-62
2022/10/20 06:30:27;;;;;;;12.77;8.75;;;;;;;;;;5101839;27;20044;-63
2022/10/20 06:32:54;;;;;;;11.43;7.75;;;;;;;;;;5103418;28;20063;-63
2022/10/20 06:35:20;;;;;;;12.82;8.45;;;;;;;;;;5093784;27;20105;-63
2022/10/20 06:37:46;;;;;;;15.82;8.50;;;;;;;;;;5101218;28;20083;-61
2022/10/20 06:40:13;;;;;;;15.73;8.65;;;;;;;;;;5090639;27;20052;-63
2022/10/20 06:42:39;;;;;;;12.20;8.52;;;;;;;;;;5100272;27;20056;-64
2022/10/20 06:45:06;;;;;;;15.52;9.55;;;;;;;;;;5094302;27;20049;-61
2022/10/20 06:47:32;;;;;;;14.27;8.02;;;;;;;;;;5082557;28;20052;-61
2022/10/20 06:49:58;;;;;;;13.75;9.07;;;;;;;;;;5093844;27;20107;-63
2022/10/20 06:52:24;;;;;;;15.82;8.82;;;;;;;;;;5100770;27;20564;-62
2022/10/20 06:54:51;;;;;;;12.65;9.00;;;;;;;;;;5100861;27;20522;-61
2022/10/20 06:57:17;;;;;;;19.90;9.77;;;;;;;;;;5104149;27;21337;-63
2022/10/20 06:59:43;;;;;;;12.18;8.25;;;;;;;;;;5094972;28;20502;-61
2022/10/20 07:02:09;;;;;;;12.45;8.65;;;;;;;;;;5101668;27;20050;-62
2022/10/20 07:04:36;;;;;;;13.85;9.02;;;;;;;;;;5091497;27;20044;-62
2022/10/20 07:07:02;;;;;;;16.08;9.27;;;;;;;;;;5100508;27;20056;-63
2022/10/20 07:09:29;;;;;;;12.57;8.75;;;;;;;;;;5101816;27;20502;-62
2022/10/20 07:11:55;;;;;;;14.68;9.27;;;;;;;;;;5097146;27;20067;-63
2022/10/20 07:14:21;;;;;;;15.52;8.73;;;;;;;;;;5094514;27;20067;-63
2022/10/20 07:16:47;;;;;;;12.23;9.07;;;;;;;;;;5101580;27;20056;-63
2022/10/20 07:19:14;;;;;;;14.75;8.82;;;;;;;;;;5118519;27;20051;-62
2022/10/20 07:21:40;;;;;;;11.80;8.15;;;;;;;;;;5105712;27;20052;-62
2022/10/20 07:24:11;;;;;;;17.08;10.50;;;;;;;;;;5108436;27;20051;-63
2022/10/20 07:26:38;;;;;;;16.40;8.90;;;;;;;;;;5115746;27;20048;-62
2022/10/20 07:29:05;;;;;;;12.73;8.95;;;;;;;;;;5103309;27;20524;-63
2022/10/20 07:31:33;;;;;;;12.93;8.68;;;;;;;;;;5100268;27;20059;-62
2022/10/20 07:34:00;;;;;;;13.93;8.95;;;;;;;;;;5102065;27;20131;-63
2022/10/20 07:36:40;;;;;;;13.13;8.35;;;;;;;;;;5111844;27;20084;-63
2022/10/20 07:39:06;;;;;;;13.75;8.95;;;;;;;;;;5102450;27;20059;-61
2022/10/20 07:41:33;;;;;;;15.35;9.18;;;;;;;;;;5115017;27;20556;-62
2022/10/20 07:44:00;;;;;;;13.05;9.15;;;;;;;;;;5095516;27;20051;-63
2022/10/20 07:46:26;;;;;;;16.02;9.38;;;;;;;;;;5101977;28;20063;-63
2022/10/20 07:48:52;;;;;;;19.98;9.80;;;;;;;;;;5099283;27;20052;-65
2022/10/20 07:51:24;;;;;;;13.70;9.20;;;;;;;;;;5103970;27;20456;-63
2022/10/20 07:53:52;;;;;;;16.27;9.13;;;;;;;;;;5102884;27;20652;-64
2022/10/20 07:56:28;;;;;;;12.32;9.18;;;;;;;;;;5087197;28;20592;-63
2022/10/20 07:58:54;;;;;;;12.15;9.13;;;;;;;;;;5101520;28;20048;-63
2022/10/20 08:01:20;;;;;;;13.30;9.65;;;;;;;;;;5096926;27;20529;-63
2022/10/20 08:03:47;;;;;;;17.73;8.98;;;;;;;;;;5118613;27;20051;-63
2022/10/20 08:06:13;;;;;;;16.35;9.00;;;;;;;;;;5117276;27;20506;-63
2022/10/20 08:08:39;;;;;;;15.82;9.48;;;;;;;;;;5107613;27;20047;-64
2022/10/20 08:11:06;;;;;;;16.15;9.30;;;;;;;;;;5122931;27;20059;-64
2022/10/20 08:13:32;;;;;;;16.48;8.45;;;;;;;;;;5122541;27;20055;-64
2022/10/20 08:15:59;;;;;;;11.70;8.52;;;;;;;;;;5121323;27;20527;-63
2022/10/20 08:18:31;;;;;;;12.65;8.65;;;;;;;;;;5106089;27;20052;-63
2022/10/20 08:21:11;;;;;;;16.08;10.05;;;;;;;;;;5101710;28;20139;-64
2022/10/20 08:23:38;;;;;;;15.38;9.70;;;;;;;;;;5094650;27;20344;-64
2022/10/20 08:26:05;;;;;;;18.63;9.43;;;;;;;;;;5101327;27;20969;-64
2022/10/20 08:28:36;;;;;;;12.75;9.25;;;;;;;;;;5121211;27;20052;-63
2022/10/20 08:31:03;;;;;;;11.48;8.27;;;;;;;;;;5101788;27;20720;-64
2022/10/20 08:33:30;;;;;;;14.82;8.55;;;;;;;;;;5101427;27;20517;-63
2022/10/20 08:36:04;;;;;;;15.38;9.23;;;;;;;;;;5100674;28;20629;-63
2022/10/20 08:38:30;;;;;;;13.25;9.15;;;;;;;;;;5100906;28;20534;-63
2022/10/20 08:40:57;;;;;;;14.38;9.10;;;;;;;;;;5101500;28;20481;-64
2022/10/20 08:43:24;;;;;;;13.23;8.73;;;;;;;;;;5098975;27;20056;-64
2022/10/20 08:45:50;;;;;;;16.67;9.70;;;;;;;;;;5106702;27;20490;-63
2022/10/20 08:48:19;;;;;;;23.10;10.00;;;;;;;;;;5104566;27;20052;-63
2022/10/20 08:50:47;;;;;;;15.20;9.38;;;;;;;;;;5104118;28;20048;-63
2022/10/20 08:53:14;;;;;;;12.18;8.63;;;;;;;;;;5102429;28;20048;-63
2022/10/20 08:55:42;;;;;;;16.58;9.02;;;;;;;;;;5105287;28;20059;-63
2022/10/20 08:58:13;;;;;;;17.23;9.20;;;;;;;;;;5104420;27;20048;-63
2022/10/20 09:00:40;;;;;;;13.07;9.32;;;;;;;;;;5105164;27;20058;-63
2022/10/20 09:03:14;;;;;;;16.30;9.18;;;;;;;;;;5102411;28;20743;-63
2022/10/20 09:05:42;;;;;;;13.30;8.75;;;;;;;;;;5104417;28;20059;-63
2022/10/20 09:08:09;;;;;;;13.40;8.50;;;;;;;;;;5102654;28;20058;-63
2022/10/20 09:10:40;;;;;;;13.88;9.05;;;;;;;;;;5086824;28;20556;-63
2022/10/20 09:13:26;;;;;;;11.98;9.50;;;;;;;;;;5100830;27;20048;-64
2022/10/20 09:15:57;;;;;;;13.30;9.07;;;;;;;;;;5100985;28;20052;-62
2022/10/20 09:18:23;;;;;;;10.82;8.65;;;;;;;;;;5105057;28;20513;-63
2022/10/20 09:20:54;;;;;;;12.32;8.80;;;;;;;;;;5104612;27;20402;-64
2022/10/20 09:23:28;;;;;;;12.52;9.32;;;;;;;;;;5103007;27;20056;-63
2022/10/20 09:26:06;;;;;;;;;;;;;;;;;;5106388;27;20508;-63
2022/10/20 09:28:33;;;;;;;13.02;9.43;;;;;;;;;;5094472;27;45732;-64
2022/10/20 09:31:26;;;;;;;17.13;10.18;;;;;;;;;;5100728;27;20052;-64
2022/10/20 09:33:53;;;;;;;13.23;9.85;;;;;;;;;;5103809;27;20059;-64
2022/10/20 09:36:19;;;;;;;20.40;11.13;;;;;;;;;;5101399;27;20055;-63
2022/10/20 09:38:47;;;;;;;13.95;9.13;;;;;;;;;;5100641;27;20445;-63
2022/10/20 09:41:18;;;;;;;14.52;9.15;;;;;;;;;;5099169;27;20056;-64
2022/10/20 09:43:53;;;;;;;13.75;9.25;;;;;;;;;;5123752;27;20055;-63
2022/10/20 09:46:26;;;;;;;15.18;10.27;;;;;;;;;;5125128;27;20074;-63
2022/10/20 09:48:53;;;;;;;14.38;9.93;;;;;;;;;;5110789;27;20052;-62
2022/10/20 09:51:24;;;;;;;16.40;9.13;;;;;;;;;;5103350;27;20495;-63
2022/10/20 09:53:52;;;;;;;12.23;9.35;;;;;;;;;;5101320;27;20056;-64
2022/10/20 09:56:23;;;;;;;18.75;10.63;;;;;;;;;;5102778;27;20051;-64
2022/10/20 09:58:49;;;;;;;14.30;9.32;;;;;;;;;;5102050;27;20048;-63
2022/10/20 10:01:15;;;;;;;20.83;9.45;;;;;;;;;;5102393;28;20106;-63
2022/10/20 10:03:46;;;;;;;14.68;9.85;;;;;;;;;;5096084;27;20086;-64
2022/10/20 10:06:39;;;;;;;14.75;10.23;;;;;;;;;;5112071;27;20040;-63
2022/10/20 10:09:24;;;;;;;16.52;9.75;;;;;;;;;;5100185;27;20063;-64
2022/10/20 10:12:01;;;;;;;15.63;9.63;;;;;;;;;;5099115;28;20048;-64
2022/10/20 10:14:27;;;;;;;26.58;9.85;;;;;;;;;;5102214;27;20136;-63
2022/10/20 10:16:54;;;;;;;13.45;9.55;;;;;;;;;;5101779;28;20602;-63
2022/10/20 10:19:27;;;;;;;13.98;9.93;;;;;;;;;;5101668;28;20594;-69
2022/10/20 10:21:55;;;;;;;17.52;10.27;;;;;;;;;;5099457;28;20059;-64
2022/10/20 10:24:41;;;;;;;15.60;10.23;;;;;;;;;;5101512;27;20739;-63
2022/10/20 10:27:18;;;;;;;13.13;9.60;;;;;;;;;;5096479;28;20051;-63
2022/10/20 10:29:44;;;;;;;11.32;9.57;;;;;;;;;;5101903;28;20536;-65
2022/10/20 10:32:15;;;;;;;14.20;10.02;;;;;;;;;;5096676;27;20615;-62
2022/10/20 10:34:54;;;;;;;13.77;10.98;;;;;;;;;;5123284;27;20100;-62
2022/10/20 10:37:21;;;;;;;14.45;10.90;;;;;;;;;;5122941;27;20055;-62
2022/10/20 10:39:47;;;;;;;18.52;10.77;;;;;;;;;;5124150;27;20527;-63
2022/10/20 10:42:20;;;;;;;14.55;10.00;;;;;;;;;;5106197;27;20055;-62
2022/10/20 10:45:02;;;;;;;21.80;10.80;;;;;;;;;;5103671;28;20059;-63
2022/10/20 10:47:28;;;;;;;21.05;10.27;;;;;;;;;;5102852;27;20509;-62
2022/10/20 10:49:54;;;;;;;14.23;10.43;;;;;;;;;;5102932;27;20058;-63
2022/10/20 10:52:23;;;;;;;16.73;10.32;;;;;;;;;;5103258;28;20056;-62
2022/10/20 10:55:09;;;;;;;19.85;11.15;;;;;;;;;;5103475;28;20051;-62
2022/10/20 10:57:39;;;;;;;15.82;10.57;;;;;;;;;;5103283;28;20059;-61
2022/10/20 11:00:09;;;;;;;21.10;11.60;;;;;;;;;;5102909;28;20055;-62
2022/10/20 11:02:42;;;;;;;17.85;11.20;;;;;;;;;;5102148;28;20509;-62
2022/10/20 11:05:14;;;;;;;16.20;11.25;;;;;;;;;;5104584;27;20498;-61
2022/10/20 11:08:04;;;;;;;17.25;11.35;;;;;;;;;;5123164;27;20044;-61
2022/10/20 11:10:30;;;;;;;20.15;11.50;;;;;;;;;;5121848;27;20178;-62
2022/10/20 11:12:57;;;;;;;17.25;12.65;;;;;;;;;;5123578;27;20051;-62
2022/10/20 11:15:35;;;;;;;19.40;13.07;;;;;;;;;;5122903;27;20040;-62
2022/10/20 11:18:09;;;;;;;22.58;13.20;;;;;;;;;;5108169;27;20063;-65
2022/10/20 11:21:02;;;;;;;19.00;12.90;;;;;;;;;;5102796;27;20059;-62
2022/10/20 11:23:47;;;;;;;19.92;14.43;;;;;;;;;;5100351;28;20055;-62
2022/10/20 11:26:34;;;;;;;22.67;14.57;;;;;;;;;;5100730;28;20067;-63
2022/10/20 11:29:02;;;;;;;21.60;13.70;;;;;;;;;;5117824;27;20550;-62
2022/10/20 11:31:29;;;;;;;21.90;14.02;;;;;;;;;;5122303;27;20377;-62
2022/10/20 11:34:15;;;;;;;23.98;14.35;;;;;;;;;;5123470;27;20060;-62
2022/10/20 11:36:55;;;;;;;26.30;14.18;;;;;;;;;;5120799;27;20056;-62
2022/10/20 11:39:29;;;;;;;30.52;16.40;;;;;;;;;;5122729;27;20059;-63
2022/10/20 11:41:59;;;;;;;24.63;14.30;;;;;;;;;;5123307;27;20058;-62
2022/10/20 11:44:44;;;;;;;31.83;17.17;;;;;;;;;;5122827;27;20101;-62
2022/10/20 11:47:12;;;;;;;23.65;15.15;;;;;;;;;;5121911;27;20055;-62
2022/10/20 11:49:39;;;;;;;27.67;16.30;;;;;;;;;;5108484;27;20044;-63
2022/10/20 11:52:20;;;;;;;25.20;15.55;;;;;;;;;;5102192;27;20044;-63
2022/10/20 11:54:49;;;;;;;24.13;16.23;;;;;;;;;;5104677;27;20052;-63
2022/10/20 11:57:22;;;;;;;23.88;15.93;;;;;;;;;;5122155;27;20079;-62
2022/10/20 11:59:57;;;;;;;25.13;16.17;;;;;;;;;;5123275;27;20113;-63
2022/10/20 12:02:38;;;;;;;26.92;16.70;;;;;;;;;;5121509;27;20062;-62
2022/10/20 12:05:23;;;;;;;27.70;15.18;;;;;;;;;;5122557;27;20417;-61
2022/10/20 12:08:02;;;;;;;28.65;15.63;;;;;;;;;;5122900;27;20047;-62
2022/10/20 12:11:07;;;;;;;27.20;17.25;;;;;;;;;;5123150;27;20052;-62
2022/10/20 12:13:39;;;;;;;24.35;15.55;;;;;;;;;;5111688;27;20052;-61
2022/10/20 12:16:06;;;;;;;25.92;16.95;;;;;;;;;;5101415;27;20059;-62
2022/10/20 12:18:33;;;;;;;25.80;15.95;;;;;;;;;;5103282;27;20063;-62
2022/10/20 12:21:00;;;;;;;26.85;17.33;;;;;;;;;;5105054;27;20502;-62
2022/10/20 12:23:45;;;;;;;28.92;18.05;;;;;;;;;;5105028;27;20084;-62
2022/10/20 12:26:33;;;;;;;29.42;17.88;;;;;;;;;;5105319;27;20050;-68
2022/10/20 12:29:02;;;;;;;31.05;17.67;;;;;;;;;;5099507;27;20472;-62
2022/10/20 12:31:47;;;;;;;30.52;18.60;;;;;;;;;;5102760;27;20052;-62
2022/10/20 12:34:22;;;;;;;33.08;19.02;;;;;;;;;;5101215;27;20048;-63
2022/10/20 12:36:48;;;;;;;34.15;19.00;;;;;;;;;;5104669;27;20059;-63
2022/10/20 12:39:16;;;;;;;36.58;19.35;;;;;;;;;;5104140;28;20048;-63
2022/10/20 12:42:02;;;;;;;36.42;19.42;;;;;;;;;;5102281;27;20052;-64
2022/10/20 12:44:40;;;;;;;34.00;18.63;;;;;;;;;;5083046;28;20063;-63
2022/10/20 12:47:07;;;;;;;39.10;19.40;;;;;;;;;;5094627;27;20548;-62
2022/10/20 12:49:39;;;;;;;34.60;19.95;;;;;;;;;;5120842;27;20087;-62
2022/10/20 12:52:14;;;;;;;35.65;19.58;;;;;;;;;;5105819;27;20431;-63
2022/10/20 12:54:40;;;;;;;38.33;20.45;;;;;;;;;;5125602;27;20633;-63
2022/10/20 12:57:29;;;;;;;35.30;19.95;;;;;;;;;;5108504;27;20529;-63
2022/10/20 12:59:55;;;;;;;35.38;19.67;;;;;;;;;;5119624;27;20484;-63
2022/10/20 13:02:22;;;;;;;36.75;20.20;;;;;;;;;;5104206;27;20047;-63
2022/10/20 13:05:02;;;;;;;35.25;19.30;;;;;;;;;;5107588;27;20048;-63
2022/10/20 13:07:46;;;;;;;40.15;21.63;;;;;;;;;;5104837;27;20068;-62
2022/10/20 13:10:25;;;;;;;37.97;18.75;;;;;;;;;;5102596;27;20538;-64
2022/10/20 13:13:00;;;;;;;42.45;20.52;;;;;;;;;;5112609;27;20520;-63
2022/10/20 13:15:27;;;;;;;;;;;;;;;;;;5112173;27;20060;-62
2022/10/20 13:17:56;;;;;;;39.42;20.00;;;;;;;;;;5101583;27;45702;-63
2022/10/20 13:20:35;;;;;;;43.90;21.90;;;;;;;;;;5114673;27;20073;-62
2022/10/20 13:23:02;;;;;;;36.25;20.45;;;;;;;;;;5089938;27;20577;-63
2022/10/20 13:25:32;;;;;;;40.20;21.52;;;;;;;;;;5101081;27;20551;-62
2022/10/20 13:28:13;;;;;;;38.20;22.02;;;;;;;;;;5103329;28;20044;-63
2022/10/20 13:30:52;;;;;;;40.88;22.20;;;;;;;;;;5104036;28;20060;-63
2022/10/20 13:33:21;;;;;;;39.40;21.23;;;;;;;;;;5102679;28;20455;-64
2022/10/20 13:36:07;;;;;;;37.58;22.75;;;;;;;;;;5103018;28;20133;-63
2022/10/20 13:38:40;;;;;;;42.58;22.33;;;;;;;;;;5095923;28;20055;-63
2022/10/20 13:41:17;;;;;;;40.13;22.42;;;;;;;;;;5103904;27;20062;-63
2022/10/20 13:43:55;;;;;;;41.55;22.15;;;;;;;;;;5092769;27;20106;-63
2022/10/20 13:46:24;;;;;;;35.53;20.80;;;;;;;;;;5087876;28;20102;-62
2022/10/20 13:49:12;;;;;;;36.70;21.00;;;;;;;;;;5097606;28;20079;-63
2022/10/20 13:51:43;;;;;;;38.22;22.23;;;;;;;;;;5101993;27;20052;-63
2022/10/20 13:54:22;;;;;;;42.63;22.65;;;;;;;;;;5103325;27;20063;-62
2022/10/20 13:56:49;;;;;;;46.22;24.33;;;;;;;;;;5101681;28;20591;-62
2022/10/20 13:59:19;;;;;;;40.75;22.13;;;;;;;;;;5100142;27;20052;-63
2022/10/20 14:01:47;;;;;;;47.83;24.65;;;;;;;;;;5098892;27;20051;-62
2022/10/20 14:04:33;;;;;;;44.75;22.35;;;;;;;;;;5101850;27;20418;-63
2022/10/20 14:07:09;;;;;;;42.25;22.35;;;;;;;;;;5121895;27;20583;-62
2022/10/20 14:09:35;;;;;;;43.42;23.08;;;;;;;;;;5124489;27;20109;-63
2022/10/20 14:12:19;;;;;;;43.67;22.20;;;;;;;;;;5104196;27;20056;-62
2022/10/20 14:14:46;;;;;;;38.85;21.02;;;;;;;;;;5099814;27;20051;-62
2022/10/20 14:17:20;;;;;;;40.67;22.92;;;;;;;;;;5102258;27;20075;-61
2022/10/20 14:19:47;;;;;;;47.50;23.02;;;;;;;;;;5111888;27;20058;-62
2022/10/20 14:22:24;;;;;;;47.17;24.23;;;;;;;;;;5118328;27;20044;-62
2022/10/20 14:24:54;;;;;;;44.55;22.85;;;;;;;;;;5102273;27;20048;-62
2022/10/20 14:27:23;;;;;;;52.97;24.75;;;;;;;;;;5105038;27;20105;-63
2022/10/20 14:29:50;;;;;;;52.35;24.58;;;;;;;;;;5124298;27;20043;-61
2022/10/20 14:32:18;;;;;;;48.42;23.85;;;;;;;;;;5123789;27;20059;-62
2022/10/20 14:35:01;;;;;;;46.88;25.02;;;;;;;;;;5102918;27;20051;-62
2022/10/20 14:37:32;;;;;;;43.63;23.80;;;;;;;;;;5101096;27;20314;-62
2022/10/20 14:40:03;;;;;;;41.28;24.00;;;;;;;;;;5100054;28;20055;-63
2022/10/20 14:42:31;;;;;;;51.05;24.52;;;;;;;;;;5104307;27;20134;-61
2022/10/20 14:44:58;;;;;;;39.72;23.13;;;;;;;;;;5101597;27;20516;-62